createdAt,value
2018-08-13T00:04:32.745Z,16.90
2018-08-13T00:07:00.910Z,17.00
2018-08-13T00:09:34.404Z,16.90
2018-08-13T00:12:02.609Z,16.80
2018-08-13T00:19:26.649Z,16.80
2018-08-13T00:24:22.749Z,17.00
2018-08-13T00:26:50.945Z,16.70
2018-08-13T00:34:15.489Z,16.80
2018-08-13T00:36:43.893Z,16.80
2018-08-13T00:39:13.116Z,16.90
2018-08-13T00:41:41.297Z,16.80
2018-08-13T00:49:05.850Z,16.60
2018-08-13T00:54:03.042Z,16.70
2018-08-13T01:01:27.169Z,16.50
2018-08-13T01:03:55.349Z,16.40
2018-08-13T01:06:23.581Z,16.50
2018-08-13T01:11:19.930Z,16.50
2018-08-13T01:16:16.093Z,16.50
2018-08-13T01:18:44.269Z,16.40
2018-08-13T01:21:12.425Z,16.20
2018-08-13T01:26:08.972Z,16.20
2018-08-13T01:31:05.128Z,16.10
2018-08-13T01:33:33.278Z,16.30
2018-08-13T01:38:29.368Z,16.30
2018-08-13T01:40:57.647Z,16.20
2018-08-13T01:43:25.805Z,16.20
2018-08-13T01:45:54.189Z,16.20
2018-08-13T01:48:22.360Z,15.90
2018-08-13T01:50:50.513Z,16.10
2018-08-13T01:55:46.581Z,15.90
2018-08-13T01:58:14.763Z,15.80
2018-08-13T02:00:42.916Z,15.80
2018-08-13T02:03:11.092Z,15.80
2018-08-13T02:05:39.497Z,15.70
2018-08-13T02:08:07.729Z,15.70
2018-08-13T02:10:35.912Z,15.70
2018-08-13T02:13:04.124Z,15.80
2018-08-13T02:15:32.362Z,15.60
2018-08-13T02:18:00.512Z,15.60
2018-08-13T02:22:56.661Z,15.70
2018-08-13T02:25:24.815Z,15.60
2018-08-13T02:30:20.935Z,15.70
2018-08-13T02:32:49.336Z,15.80
2018-08-13T02:35:17.538Z,15.70
2018-08-13T02:40:13.667Z,15.70
2018-08-13T02:45:10.975Z,15.50
2018-08-13T02:47:39.140Z,15.60
2018-08-13T02:50:09.645Z,15.50
2018-08-13T02:52:37.800Z,15.50
2018-08-13T02:57:34.189Z,15.40
2018-08-13T03:00:02.331Z,15.30
2018-08-13T03:04:59.174Z,15.30
2018-08-13T03:07:27.311Z,15.40
2018-08-13T03:12:23.438Z,15.30
2018-08-13T03:14:51.689Z,15.20
2018-08-13T03:17:26.797Z,15.20
2018-08-13T03:19:54.964Z,15.30
2018-08-13T03:24:51.040Z,15.30
2018-08-13T03:27:19.202Z,15.30
2018-08-13T03:34:43.493Z,15.40
2018-08-13T03:37:11.646Z,15.30
2018-08-13T03:39:40.069Z,15.40
2018-08-13T03:42:08.904Z,15.20
2018-08-13T03:44:37.052Z,15.10
2018-08-13T03:47:05.500Z,15.20
2018-08-13T03:49:33.659Z,15.20
2018-08-13T04:01:53.580Z,15.20
2018-08-13T04:04:21.736Z,15.30
2018-08-13T04:06:49.873Z,15.30
2018-08-13T04:09:18.048Z,15.30
2018-08-13T04:16:46.249Z,15.30
2018-08-13T04:21:42.312Z,15.30
2018-08-13T04:24:10.460Z,15.30
2018-08-13T04:26:38.611Z,15.40
2018-08-13T04:29:06.761Z,15.50
2018-08-13T04:31:34.905Z,15.60
2018-08-13T04:34:03.074Z,15.70
2018-08-13T04:38:59.125Z,15.80
2018-08-13T04:41:27.293Z,15.60
2018-08-13T04:43:55.392Z,15.50
2018-08-13T04:48:51.489Z,15.30
2018-08-13T04:51:19.624Z,15.40
2018-08-13T04:53:47.749Z,15.50
2018-08-13T04:56:15.905Z,15.40
2018-08-13T05:03:39.885Z,15.70
2018-08-13T05:06:08.396Z,15.70
2018-08-13T05:08:36.533Z,15.70
2018-08-13T05:13:32.589Z,15.80
2018-08-13T05:16:00.749Z,15.80
2018-08-13T05:20:56.812Z,16.00
2018-08-13T05:23:24.956Z,16.10
2018-08-13T05:25:53.098Z,16.30
2018-08-13T05:28:21.255Z,16.40
2018-08-13T05:30:49.424Z,16.50
2018-08-13T05:33:17.593Z,16.60
2018-08-13T05:35:45.738Z,16.70
2018-08-13T05:40:42.397Z,17.20
2018-08-13T05:45:38.449Z,19.80
2018-08-13T05:48:06.600Z,21.00
2018-08-13T05:58:00.549Z,23.20
2018-08-13T06:00:28.694Z,23.60
2018-08-13T06:05:24.745Z,23.00
2018-08-13T06:07:52.881Z,22.50
2018-08-13T06:10:21.033Z,22.40
2018-08-13T06:12:49.177Z,21.50
2018-08-13T06:15:17.337Z,22.10
2018-08-13T06:17:45.485Z,22.60
2018-08-13T06:20:13.673Z,21.80
2018-08-13T06:22:42.823Z,22.10
2018-08-13T06:25:11.681Z,21.40
2018-08-13T06:32:36.881Z,24.50
2018-08-13T06:37:32.970Z,25.80
2018-08-13T06:40:01.112Z,25.40
2018-08-13T06:49:53.053Z,25.70
2018-08-13T06:57:17.113Z,22.80
2018-08-13T06:59:45.253Z,22.60
2018-08-13T07:02:13.408Z,21.90
2018-08-13T07:09:37.393Z,22.40
2018-08-13T07:12:05.541Z,22.40
2018-08-13T07:14:34.786Z,22.60
2018-08-13T07:21:58.968Z,23.00
2018-08-13T07:26:55.045Z,22.60
2018-08-13T07:31:51.115Z,22.80
2018-08-13T07:34:19.376Z,23.00
2018-08-13T07:36:47.574Z,23.00
2018-08-13T07:39:15.757Z,23.40
2018-08-13T07:41:43.921Z,23.50
2018-08-13T07:44:12.063Z,23.70
2018-08-13T07:46:40.195Z,23.90
2018-08-13T07:49:08.366Z,24.00
2018-08-13T07:51:36.573Z,24.20
2018-08-13T07:54:04.939Z,24.30
2018-08-13T07:59:01.045Z,24.60
2018-08-13T08:01:29.243Z,24.60
2018-08-13T08:03:57.397Z,24.70
2018-08-13T08:06:25.554Z,24.60
2018-08-13T08:08:53.783Z,25.30
2018-08-13T08:11:21.918Z,26.40
2018-08-13T08:16:17.977Z,27.00
2018-08-13T08:18:46.139Z,27.20
2018-08-13T08:21:14.334Z,27.30
2018-08-13T08:23:42.462Z,26.80
2018-08-13T08:31:06.523Z,25.20
2018-08-13T08:33:34.675Z,25.10
2018-08-13T08:38:30.806Z,24.70
2018-08-13T08:40:59.057Z,24.50
2018-08-13T08:45:55.172Z,24.00
2018-08-13T08:48:23.283Z,23.70
2018-08-13T08:50:51.445Z,23.10
2018-08-13T08:53:19.617Z,22.30
2018-08-13T08:55:47.788Z,21.90
2018-08-13T08:58:15.946Z,21.60
2018-08-13T09:03:12.030Z,21.70
2018-08-13T09:05:40.181Z,21.60
2018-08-13T09:08:08.351Z,21.60
2018-08-13T09:10:36.516Z,21.60
2018-08-13T09:25:52.294Z,21.70
2018-08-13T09:28:31.899Z,21.60
2018-08-13T09:31:11.997Z,21.70
2018-08-13T09:33:51.642Z,21.70
2018-08-13T09:36:19.803Z,21.60
2018-08-13T09:38:47.965Z,21.70
2018-08-13T09:41:16.131Z,21.90
2018-08-13T09:43:44.297Z,22.10
2018-08-13T09:46:12.911Z,22.40
2018-08-13T09:51:10.314Z,22.50
2018-08-13T09:53:39.675Z,22.30
2018-08-13T09:58:36.097Z,22.40
2018-08-13T10:01:10.625Z,22.20
2018-08-13T10:03:39.342Z,22.30
2018-08-13T10:06:07.807Z,22.50
2018-08-13T10:11:04.335Z,22.30
2018-08-13T10:16:00.897Z,22.90
2018-08-13T10:18:29.282Z,22.80
2018-08-13T10:20:57.732Z,22.60
2018-08-13T10:23:25.969Z,22.40
2018-08-13T10:25:54.464Z,22.40
2018-08-13T10:28:22.806Z,22.40
2018-08-13T10:30:51.191Z,22.20
2018-08-13T10:33:19.769Z,21.80
2018-08-13T10:35:48.162Z,22.00
2018-08-13T10:43:12.704Z,22.60
2018-08-13T10:45:41.130Z,22.70
2018-08-13T10:50:37.566Z,22.70
2018-08-13T10:53:05.868Z,22.70
2018-08-13T10:55:34.253Z,22.60
2018-08-13T10:58:02.576Z,22.40
2018-08-13T11:00:30.780Z,22.30
2018-08-13T11:05:27.289Z,21.70
2018-08-13T11:15:20.249Z,22.30
2018-08-13T11:17:48.734Z,22.20
2018-08-13T11:20:17.217Z,22.00
2018-08-13T11:22:45.610Z,22.00
2018-08-13T11:25:14.965Z,21.90
2018-08-13T11:27:43.530Z,21.80
2018-08-13T11:30:13.417Z,21.90
2018-08-13T11:32:41.750Z,21.90
2018-08-13T11:35:10.281Z,21.90
2018-08-13T11:40:13.774Z,21.90
2018-08-13T11:42:42.174Z,22.00
2018-08-13T11:45:10.654Z,22.10
2018-08-13T11:50:13.345Z,22.10
2018-08-13T11:52:42.001Z,22.30
2018-08-13T11:55:10.397Z,22.60
2018-08-13T11:57:38.786Z,22.70
2018-08-13T12:00:09.065Z,22.70
2018-08-13T12:05:08.312Z,22.70
2018-08-13T12:10:05.762Z,22.80
2018-08-13T12:15:02.696Z,22.60
2018-08-13T12:17:31.445Z,22.70
2018-08-13T12:19:59.920Z,22.90
2018-08-13T12:22:28.349Z,23.10
2018-08-13T12:24:57.533Z,22.90
2018-08-13T12:29:53.874Z,23.10
2018-08-13T12:32:22.289Z,23.20
2018-08-13T12:37:18.556Z,23.30
2018-08-13T12:39:46.760Z,23.40
2018-08-13T12:42:14.939Z,23.40
2018-08-13T12:47:11.029Z,23.20
2018-08-13T12:52:07.401Z,22.90
2018-08-13T12:54:35.957Z,22.60
2018-08-13T12:57:04.174Z,22.50
2018-08-13T13:02:00.265Z,22.50
2018-08-13T13:04:28.420Z,22.40
2018-08-13T13:09:24.573Z,22.30
2018-08-13T13:11:52.736Z,22.20
2018-08-13T13:14:21.063Z,22.40
2018-08-13T13:16:49.255Z,22.40
2018-08-13T13:19:17.421Z,22.40
2018-08-13T13:21:45.583Z,22.30
2018-08-13T13:24:13.753Z,22.60
2018-08-13T13:26:41.922Z,23.00
2018-08-13T13:31:38.064Z,24.10
2018-08-13T13:34:06.269Z,24.50
2018-08-13T13:39:02.385Z,25.10
2018-08-13T13:43:58.553Z,25.30
2018-08-13T13:46:26.736Z,25.70
2018-08-13T13:48:54.881Z,26.20
2018-08-13T13:51:23.047Z,26.30
2018-08-13T13:56:19.229Z,26.20
2018-08-13T14:01:15.348Z,26.50
2018-08-13T14:03:43.761Z,25.70
2018-08-13T14:06:12.288Z,25.00
2018-08-13T14:08:40.739Z,25.40
2018-08-13T14:11:09.131Z,25.60
2018-08-13T14:13:37.705Z,25.80
2018-08-13T14:18:34.059Z,26.30
2018-08-13T14:23:30.939Z,26.00
2018-08-13T14:25:59.257Z,25.20
2018-08-13T14:28:27.666Z,25.30
2018-08-13T14:30:56.096Z,25.00
2018-08-13T14:33:24.517Z,24.90
2018-08-13T14:43:16.565Z,24.90
2018-08-13T14:45:45.075Z,25.10
2018-08-13T14:50:41.693Z,25.60
2018-08-13T14:53:09.997Z,26.00
2018-08-13T14:55:38.178Z,25.40
2018-08-13T14:58:06.381Z,25.30
2018-08-13T15:00:36.084Z,25.30
2018-08-13T15:05:33.061Z,24.80
2018-08-13T15:08:01.278Z,24.50
2018-08-13T15:10:29.573Z,23.20
2018-08-13T15:15:25.785Z,21.30
2018-08-13T15:17:54.112Z,21.40
2018-08-13T15:20:25.366Z,21.70
2018-08-13T15:27:49.773Z,21.70
2018-08-13T15:30:18.601Z,21.90
2018-08-13T15:35:15.709Z,22.00
2018-08-13T15:37:44.536Z,22.20
2018-08-13T15:40:12.700Z,22.20
2018-08-13T15:42:41.009Z,22.30
2018-08-13T15:45:11.781Z,22.20
2018-08-13T15:50:09.738Z,22.60
2018-08-13T15:52:38.260Z,22.50
2018-08-13T15:57:34.941Z,22.40
2018-08-13T16:00:03.484Z,22.30
2018-08-13T16:02:31.965Z,21.90
2018-08-13T16:05:00.489Z,22.00
2018-08-13T16:07:29.005Z,21.90
2018-08-13T16:09:57.493Z,22.00
2018-08-13T16:12:26.145Z,22.00
2018-08-13T16:14:54.613Z,21.90
2018-08-13T16:17:23.147Z,22.00
2018-08-13T16:19:51.646Z,22.00
2018-08-13T16:22:20.494Z,21.90
2018-08-13T16:24:49.001Z,21.80
2018-08-13T16:27:17.553Z,21.80
2018-08-13T16:32:14.145Z,21.60
2018-08-13T16:34:42.721Z,21.50
2018-08-13T16:39:39.350Z,21.50
2018-08-13T16:42:07.867Z,21.30
2018-08-13T16:47:04.494Z,21.40
2018-08-13T16:49:32.995Z,21.30
2018-08-13T16:52:01.451Z,21.20
2018-08-13T16:56:57.981Z,21.10
2018-08-13T16:59:26.399Z,20.90
2018-08-13T17:01:54.849Z,21.00
2018-08-13T17:04:23.290Z,21.00
2018-08-13T17:06:51.896Z,21.00
2018-08-13T17:09:20.418Z,21.00
2018-08-13T17:11:48.885Z,21.00
2018-08-13T17:16:46.672Z,20.90
2018-08-13T17:21:43.407Z,21.00
2018-08-13T17:24:13.486Z,21.00
2018-08-13T17:26:42.079Z,21.20
2018-08-13T17:29:10.627Z,21.30
2018-08-13T17:31:39.520Z,21.20
2018-08-13T17:34:09.225Z,21.10
2018-08-13T17:36:38.050Z,20.90
2018-08-13T17:39:09.802Z,20.80
2018-08-13T17:41:38.619Z,20.60
2018-08-13T17:46:35.666Z,20.60
2018-08-13T17:49:04.255Z,20.60
2018-08-13T17:51:32.798Z,20.60
2018-08-13T17:54:01.370Z,20.60
2018-08-13T17:58:58.673Z,20.50
2018-08-13T18:03:55.730Z,20.30
2018-08-13T18:06:24.399Z,20.20
2018-08-13T18:11:21.345Z,20.00
2018-08-13T18:13:49.879Z,20.00
2018-08-13T18:18:46.610Z,20.00
2018-08-13T18:23:43.365Z,20.00
2018-08-13T18:28:40.038Z,19.90
2018-08-13T18:31:08.950Z,19.90
2018-08-13T18:33:37.552Z,19.90
2018-08-13T18:36:06.894Z,19.90
2018-08-13T18:38:35.559Z,19.90
2018-08-13T18:46:00.506Z,19.80
2018-08-13T18:53:25.435Z,19.80
2018-08-13T18:58:22.173Z,19.80
2018-08-13T19:00:53.906Z,19.70
2018-08-13T19:03:22.687Z,19.70
2018-08-13T19:05:51.261Z,19.60
2018-08-13T19:13:16.799Z,19.40
2018-08-13T19:15:45.421Z,19.40
2018-08-13T19:25:38.478Z,19.30
2018-08-13T19:28:07.247Z,19.30
2018-08-13T19:30:35.742Z,19.20
2018-08-13T19:35:32.536Z,19.20
2018-08-13T19:38:01.082Z,19.20
2018-08-13T19:40:29.573Z,19.20
2018-08-13T19:42:58.028Z,19.20
2018-08-13T19:45:26.579Z,19.10
2018-08-13T19:47:55.117Z,19.00
2018-08-13T19:50:23.620Z,19.00
2018-08-13T19:52:52.174Z,19.00
2018-08-13T19:55:21.042Z,19.10
2018-08-13T20:02:47.965Z,19.10
2018-08-13T20:07:45.097Z,19.10
2018-08-13T20:12:43.727Z,19.10
2018-08-13T20:17:40.622Z,19.00
2018-08-13T20:20:16.906Z,18.90
2018-08-13T20:22:46.082Z,18.90
2018-08-13T20:25:15.973Z,18.90
2018-08-13T20:32:42.475Z,18.80
2018-08-13T20:35:10.900Z,18.80
2018-08-13T20:50:02.651Z,18.80
2018-08-13T20:57:27.328Z,18.90
2018-08-13T20:59:55.962Z,18.80
2018-08-13T21:02:24.492Z,18.80
2018-08-13T21:04:53.059Z,18.70
2018-08-13T21:07:21.466Z,18.60
2018-08-13T21:09:49.978Z,18.70
2018-08-13T21:12:18.413Z,18.70
2018-08-13T21:14:46.793Z,18.50
2018-08-13T21:17:15.282Z,18.60
2018-08-13T21:19:43.731Z,18.60
2018-08-13T21:22:12.237Z,18.60
2018-08-13T21:24:41.172Z,18.60
2018-08-13T21:29:37.845Z,18.80
2018-08-13T21:32:07.255Z,18.80
2018-08-13T21:37:03.861Z,18.70
2018-08-13T21:44:28.690Z,18.80
2018-08-13T21:51:53.269Z,18.80
2018-08-13T21:59:18.911Z,18.70
2018-08-13T22:01:47.950Z,18.60
2018-08-13T22:04:17.622Z,18.70
2018-08-13T22:06:45.944Z,18.70
2018-08-13T22:09:14.222Z,18.60
2018-08-13T22:11:42.737Z,18.60
2018-08-13T22:14:11.353Z,18.60
2018-08-13T22:19:13.957Z,18.60
2018-08-13T22:21:42.417Z,18.60
2018-08-13T22:29:12.308Z,18.40
2018-08-13T22:31:40.873Z,18.40
2018-08-13T22:34:09.588Z,18.50
2018-08-13T22:36:37.836Z,18.40
2018-08-13T22:39:07.205Z,18.30
2018-08-13T22:41:35.603Z,18.40
2018-08-13T22:44:03.812Z,18.30
2018-08-13T22:46:31.991Z,18.30
2018-08-13T22:49:00.149Z,18.30
2018-08-13T22:51:28.707Z,18.20
2018-08-13T22:58:53.281Z,18.10
2018-08-13T23:01:21.641Z,18.10
2018-08-13T23:06:25.871Z,18.10
2018-08-13T23:08:54.438Z,18.00
2018-08-13T23:11:22.925Z,18.00
2018-08-13T23:13:51.113Z,18.00
2018-08-13T23:18:47.347Z,17.90
2018-08-13T23:21:15.889Z,17.90
2018-08-13T23:23:44.397Z,18.00
2018-08-13T23:26:12.821Z,17.80
2018-08-13T23:28:41.218Z,17.80
2018-08-13T23:33:38.115Z,17.90
2018-08-13T23:36:06.532Z,17.90
2018-08-13T23:38:34.740Z,17.80
2018-08-13T23:41:02.912Z,17.80
2018-08-13T23:43:31.089Z,17.80
2018-08-13T23:45:59.246Z,17.80
2018-08-13T23:48:27.439Z,17.70
2018-08-13T23:53:23.560Z,17.70
2018-08-13T23:58:19.661Z,17.60
